createdAt,value
2022-11-05T00:00:35.922Z,5.07
2022-11-05T00:05:55.939Z,5.08
2022-11-05T00:10:57.378Z,4.99
2022-11-05T00:16:17.498Z,4.85
2022-11-05T00:21:37.677Z,4.79
2022-11-05T00:26:39.144Z,4.76
2022-11-05T00:31:40.576Z,4.81
2022-11-05T00:36:42.008Z,4.75
2022-11-05T00:41:43.524Z,4.69
2022-11-05T00:46:44.993Z,4.64
2022-11-05T00:51:46.413Z,4.50
2022-11-05T00:56:47.946Z,4.30
2022-11-05T01:01:49.440Z,4.30
2022-11-05T01:06:50.914Z,4.39
2022-11-05T01:11:52.394Z,4.30
2022-11-05T01:16:54.397Z,4.12
2022-11-05T01:21:55.890Z,4.01
2022-11-05T01:26:57.477Z,3.95
2022-11-05T01:31:58.974Z,3.94
2022-11-05T01:37:00.425Z,3.94
2022-11-05T01:42:01.999Z,3.93
2022-11-05T01:47:03.474Z,3.92
2022-11-05T01:52:05.048Z,3.89
2022-11-05T01:57:09.916Z,3.79
2022-11-05T02:02:11.774Z,3.72
2022-11-05T02:07:14.153Z,3.90
2022-11-05T02:12:15.745Z,4.00
2022-11-05T02:17:40.498Z,4.10
2022-11-05T02:23:19.533Z,4.26
2022-11-05T02:28:39.524Z,4.26
2022-11-05T02:34:20.426Z,4.27
2022-11-05T02:39:40.173Z,4.33
2022-11-05T02:44:44.773Z,4.29
2022-11-05T02:49:56.080Z,4.33
2022-11-05T02:55:20.021Z,4.36
2022-11-05T03:00:48.952Z,4.54
2022-11-05T03:06:11.660Z,4.73
2022-11-05T03:11:19.797Z,4.64
2022-11-05T03:16:41.961Z,4.66
2022-11-05T03:21:53.283Z,4.73
2022-11-05T03:27:02.501Z,4.90
2022-11-05T03:32:05.712Z,4.99
2022-11-05T03:37:09.241Z,4.98
2022-11-05T03:42:14.625Z,4.97
2022-11-05T03:47:21.933Z,4.97
2022-11-05T03:52:29.288Z,5.11
2022-11-05T03:57:34.588Z,4.98
2022-11-05T04:02:37.572Z,5.02
2022-11-05T04:07:57.664Z,5.06
2022-11-05T04:13:17.801Z,5.05
2022-11-05T04:18:19.549Z,5.20
2022-11-05T04:23:39.543Z,5.17
2022-11-05T04:29:02.569Z,5.26
2022-11-05T04:34:08.243Z,5.26
2022-11-05T04:39:09.705Z,5.13
2022-11-05T04:44:11.178Z,5.18
2022-11-05T04:49:12.661Z,5.22
2022-11-05T04:54:14.115Z,5.14
2022-11-05T04:59:15.597Z,5.31
2022-11-05T05:04:17.068Z,5.46
2022-11-05T05:09:18.552Z,5.65
2022-11-05T05:14:19.998Z,5.75
2022-11-05T05:19:21.392Z,5.90
2022-11-05T05:24:24.889Z,5.79
2022-11-05T05:29:26.330Z,5.72
2022-11-05T05:34:27.809Z,5.71
2022-11-05T05:39:29.233Z,5.67
2022-11-05T05:44:30.647Z,5.67
2022-11-05T05:49:32.360Z,5.52
2022-11-05T05:54:38.315Z,5.39
2022-11-05T05:59:42.850Z,5.29
2022-11-05T06:04:44.292Z,5.40
2022-11-05T06:09:45.787Z,5.48
2022-11-05T06:14:47.696Z,5.45
2022-11-05T06:19:49.162Z,5.48
2022-11-05T06:24:50.579Z,5.45
2022-11-05T06:29:51.995Z,5.52
2022-11-05T06:34:53.502Z,5.49
2022-11-05T06:39:57.033Z,5.50
2022-11-05T06:44:58.535Z,5.51
2022-11-05T06:50:00.012Z,5.50
2022-11-05T06:55:01.496Z,5.64
2022-11-05T07:00:07.621Z,5.57
2022-11-05T07:05:12.794Z,5.72
2022-11-05T07:10:15.648Z,5.66
2022-11-05T07:15:17.221Z,5.66
2022-11-05T07:20:18.698Z,5.80
2022-11-05T07:25:20.329Z,5.84
2022-11-05T07:30:21.832Z,5.78
2022-11-05T07:35:23.742Z,5.91
2022-11-05T07:40:27.581Z,6.04
2022-11-05T07:45:30.956Z,5.96
2022-11-05T07:50:35.396Z,6.04
2022-11-05T07:55:37.678Z,6.11
2022-11-05T08:00:39.858Z,6.12
2022-11-05T08:05:44.554Z,6.25
2022-11-05T08:10:47.217Z,6.42
2022-11-05T08:15:48.757Z,6.66
2022-11-05T08:20:50.203Z,6.79
2022-11-05T08:25:51.675Z,6.89
2022-11-05T08:30:55.823Z,7.14
2022-11-05T08:36:01.852Z,7.45
2022-11-05T08:41:03.369Z,7.69
2022-11-05T08:46:04.889Z,7.94
2022-11-05T08:51:06.299Z,8.41
2022-11-05T08:56:08.186Z,9.57
2022-11-05T09:01:09.744Z,13.09
2022-11-05T09:06:11.233Z,13.16
2022-11-05T09:11:12.844Z,11.33
2022-11-05T09:16:20.412Z,10.52
2022-11-05T09:21:21.920Z,9.98
2022-11-05T09:26:24.455Z,9.75
2022-11-05T09:31:25.957Z,9.33
2022-11-05T09:36:27.401Z,9.41
2022-11-05T09:41:36.788Z,9.87
2022-11-05T09:46:47.246Z,10.84
2022-11-05T09:51:48.977Z,15.72
2022-11-05T09:56:52.942Z,17.18
2022-11-05T10:02:04.018Z,18.80
2022-11-05T10:07:10.505Z,19.98
2022-11-05T10:12:37.218Z,20.31
2022-11-05T10:17:42.355Z,18.79
2022-11-05T10:22:49.166Z,17.85
2022-11-05T10:27:54.517Z,18.75
2022-11-05T10:33:00.509Z,18.16
2022-11-05T10:38:02.228Z,20.53
2022-11-05T10:43:05.754Z,20.87
2022-11-05T10:48:27.380Z,20.24
2022-11-05T10:53:38.916Z,18.87
2022-11-05T10:58:55.240Z,22.49
2022-11-05T11:04:17.596Z,20.92
2022-11-05T11:09:26.287Z,20.49
2022-11-05T11:14:28.095Z,22.28
2022-11-05T11:19:32.677Z,23.63
2022-11-05T11:24:39.846Z,21.00
2022-11-05T11:29:49.169Z,17.39
2022-11-05T11:34:53.877Z,16.64
2022-11-05T11:40:04.031Z,18.24
2022-11-05T11:45:25.555Z,18.67
2022-11-05T11:50:44.300Z,17.73
2022-11-05T11:56:11.801Z,19.72
2022-11-05T12:01:35.344Z,19.05
2022-11-05T12:06:36.718Z,17.95
2022-11-05T12:11:54.939Z,20.45
2022-11-05T12:17:07.230Z,19.10
2022-11-05T12:22:36.510Z,17.32
2022-11-05T12:27:49.899Z,16.95
2022-11-05T12:33:00.248Z,16.46
2022-11-05T12:38:29.571Z,17.77
2022-11-05T12:43:31.973Z,17.11
2022-11-05T12:48:48.447Z,15.18
2022-11-05T12:54:05.494Z,17.05
2022-11-05T12:59:39.925Z,18.91
2022-11-05T13:04:50.820Z,15.47
2022-11-05T13:09:57.928Z,14.11
2022-11-05T13:15:10.575Z,13.77
2022-11-05T13:20:19.059Z,13.23
2022-11-05T13:25:27.841Z,13.28
2022-11-05T13:30:41.473Z,16.51
2022-11-05T13:36:20.937Z,17.81
2022-11-05T13:41:34.621Z,16.57
2022-11-05T13:46:41.836Z,15.92
2022-11-05T13:51:53.314Z,15.51
2022-11-05T13:57:12.107Z,13.84
2022-11-05T14:02:28.639Z,12.89
2022-11-05T14:07:45.184Z,14.30
2022-11-05T14:12:50.863Z,15.53
2022-11-05T14:18:31.101Z,16.86
2022-11-05T14:23:49.085Z,16.71
2022-11-05T14:29:11.780Z,16.20
2022-11-05T14:34:13.179Z,13.96
2022-11-05T14:39:20.470Z,12.86
2022-11-05T14:44:23.588Z,12.02
2022-11-05T14:49:29.293Z,11.63
2022-11-05T14:54:41.369Z,11.32
2022-11-05T14:59:48.581Z,11.03
2022-11-05T15:04:52.680Z,10.91
2022-11-05T15:09:54.088Z,10.79
2022-11-05T15:15:02.084Z,10.63
2022-11-05T15:20:06.583Z,10.42
2022-11-05T15:25:28.573Z,10.32
2022-11-05T15:30:30.148Z,10.23
2022-11-05T15:35:37.840Z,10.16
2022-11-05T15:40:39.296Z,10.21
2022-11-05T15:45:40.742Z,10.03
2022-11-05T15:50:42.444Z,10.01
2022-11-05T15:55:54.969Z,9.99
2022-11-05T16:00:56.474Z,9.93
2022-11-05T16:06:00.246Z,9.84
2022-11-05T16:11:01.770Z,9.88
2022-11-05T16:16:14.699Z,9.85
2022-11-05T16:21:18.961Z,9.58
2022-11-05T16:26:55.853Z,9.72
2022-11-05T16:31:53.835Z,9.77
2022-11-05T16:36:59.551Z,9.62
2022-11-05T16:42:01.006Z,9.62
2022-11-05T16:47:02.475Z,9.54
2022-11-05T16:52:08.802Z,9.53
2022-11-05T16:57:28.784Z,9.58
2022-11-05T17:02:30.456Z,9.64
2022-11-05T17:07:34.735Z,9.59
2022-11-05T17:12:38.655Z,9.48
2022-11-05T17:17:40.100Z,9.51
2022-11-05T17:22:41.553Z,9.51
2022-11-05T17:27:43.207Z,9.54
2022-11-05T17:32:44.978Z,9.47
2022-11-05T17:37:46.865Z,9.46
2022-11-05T17:42:49.278Z,9.36
2022-11-05T17:47:50.755Z,9.45
2022-11-05T17:52:52.237Z,9.40
2022-11-05T17:57:53.728Z,9.20
2022-11-05T18:02:55.450Z,9.24
2022-11-05T18:07:57.382Z,9.39
2022-11-05T18:12:58.973Z,9.27
2022-11-05T18:18:00.452Z,9.43
2022-11-05T18:23:02.112Z,9.22
2022-11-05T18:28:03.902Z,9.24
2022-11-05T18:33:05.582Z,9.28
2022-11-05T18:38:07.102Z,9.26
2022-11-05T18:43:08.672Z,9.36
2022-11-05T18:48:11.106Z,9.32
2022-11-05T18:53:12.872Z,9.26
2022-11-05T18:58:14.655Z,9.19
2022-11-05T19:03:16.193Z,9.27
2022-11-05T19:08:17.672Z,9.15
2022-11-05T19:13:19.120Z,9.16
2022-11-05T19:18:20.659Z,9.18
2022-11-05T19:23:22.213Z,9.06
2022-11-05T19:28:23.786Z,9.08
2022-11-05T19:33:25.642Z,9.04
2022-11-05T19:38:27.193Z,9.05
2022-11-05T19:43:29.047Z,8.98
2022-11-05T19:48:31.402Z,9.03
2022-11-05T19:53:35.033Z,9.03
2022-11-05T19:58:36.618Z,9.08
2022-11-05T20:03:39.006Z,9.04
2022-11-05T20:08:59.802Z,9.11
2022-11-05T20:14:03.319Z,9.08
2022-11-05T20:19:07.447Z,9.00
2022-11-05T20:24:11.675Z,9.00
2022-11-05T20:29:13.247Z,9.02
2022-11-05T20:34:14.717Z,9.06
2022-11-05T20:39:17.638Z,8.97
2022-11-05T20:44:19.644Z,8.96
2022-11-05T20:49:25.132Z,8.91
2022-11-05T20:54:27.321Z,8.87
2022-11-05T20:59:28.764Z,8.85
2022-11-05T21:04:30.622Z,8.81
2022-11-05T21:09:32.072Z,8.76
2022-11-05T21:14:33.523Z,8.77
2022-11-05T21:19:35.664Z,8.79
2022-11-05T21:24:37.170Z,8.76
2022-11-05T21:29:38.651Z,8.93
2022-11-05T21:34:40.146Z,8.75
2022-11-05T21:39:41.589Z,8.86
2022-11-05T21:44:43.140Z,8.81
2022-11-05T21:49:44.695Z,8.84
2022-11-05T21:55:05.088Z,8.86
2022-11-05T22:00:09.626Z,8.84
2022-11-05T22:05:11.202Z,8.81
2022-11-05T22:10:16.105Z,8.77
2022-11-05T22:15:18.028Z,8.80
2022-11-05T22:20:19.976Z,8.69
2022-11-05T22:25:21.752Z,8.72
2022-11-05T22:30:23.210Z,8.73
2022-11-05T22:35:24.667Z,8.66
2022-11-05T22:40:26.127Z,8.69
2022-11-05T22:45:27.570Z,8.57
2022-11-05T22:50:29.070Z,8.64
2022-11-05T22:55:30.555Z,8.45
2022-11-05T23:00:37.353Z,8.57
2022-11-05T23:05:38.810Z,8.67
2022-11-05T23:10:58.946Z,8.57
2022-11-05T23:16:18.991Z,8.65
2022-11-05T23:21:39.128Z,8.77
2022-11-05T23:26:52.886Z,8.67
2022-11-05T23:32:12.767Z,8.67
2022-11-05T23:37:32.757Z,8.69
2022-11-05T23:42:53.310Z,8.67
2022-11-05T23:48:30.215Z,8.63
2022-11-05T23:53:34.128Z,8.65
2022-11-05T23:58:37.107Z,8.60
